sensor_id;sensor_type;location;lat;lon;timestamp;pressure;altitude;pressure_sealevel;temperature
18713;BMP280;9485;49.386;8.674;2023-03-20T00:01:39;100656.44;;;13.02
18713;BMP280;9485;49.386;8.674;2023-03-20T00:07:00;100689.00;;;13.18
18713;BMP280;9485;49.386;8.674;2023-03-20T00:12:24;100690.00;;;13.15
18713;BMP280;9485;49.386;8.674;2023-03-20T00:17:45;100698.50;;;13.09
18713;BMP280;9485;49.386;8.674;2023-03-20T00:23:06;100701.06;;;13.07
18713;BMP280;9485;49.386;8.674;2023-03-20T00:28:37;100704.66;;;13.08
18713;BMP280;9485;49.386;8.674;2023-03-20T00:34:02;100701.06;;;13.07
18713;BMP280;9485;49.386;8.674;2023-03-20T00:39:24;100701.81;;;13.08
18713;BMP280;9485;49.386;8.674;2023-03-20T00:44:49;100690.72;;;13.04
18713;BMP280;9485;49.386;8.674;2023-03-20T00:50:18;100694.56;;;13.01
18713;BMP280;9485;49.386;8.674;2023-03-20T00:55:40;100690.19;;;13.00
18713;BMP280;9485;49.386;8.674;2023-03-20T01:01:02;100695.34;;;13.02
18713;BMP280;9485;49.386;8.674;2023-03-20T01:06:25;100695.56;;;12.98
18713;BMP280;9485;49.386;8.674;2023-03-20T01:11:47;100689.63;;;12.96
18713;BMP280;9485;49.386;8.674;2023-03-20T01:17:21;100679.56;;;12.90
18713;BMP280;9485;49.386;8.674;2023-03-20T01:22:42;100683.19;;;12.96
18713;BMP280;9485;49.386;8.674;2023-03-20T01:28:13;100697.66;;;13.03
18713;BMP280;9485;49.386;8.674;2023-03-20T01:33:36;100696.91;;;13.03
18713;BMP280;9485;49.386;8.674;2023-03-20T01:38:58;100703.09;;;13.01
18713;BMP280;9485;49.386;8.674;2023-03-20T01:44:21;100699.97;;;12.99
18713;BMP280;9485;49.386;8.674;2023-03-20T01:50:29;100705.63;;;12.99
18713;BMP280;9485;49.386;8.674;2023-03-20T01:55:58;100715.19;;;13.02
18713;BMP280;9485;49.386;8.674;2023-03-20T02:01:29;100715.69;;;13.00
18713;BMP280;9485;49.386;8.674;2023-03-20T02:06:51;100724.72;;;12.99
18713;BMP280;9485;49.386;8.674;2023-03-20T02:12:28;100730.09;;;12.97
18713;BMP280;9485;49.386;8.674;2023-03-20T02:17:49;100719.78;;;12.94
18713;BMP280;9485;49.386;8.674;2023-03-20T02:23:45;100715.94;;;12.97
18713;BMP280;9485;49.386;8.674;2023-03-20T02:30:06;100715.66;;;12.95
18713;BMP280;9485;49.386;8.674;2023-03-20T02:41:53;100730.56;;;12.90
18713;BMP280;9485;49.386;8.674;2023-03-20T02:47:24;100727.22;;;12.91
18713;BMP280;9485;49.386;8.674;2023-03-20T02:52:57;100725.44;;;12.94
18713;BMP280;9485;49.386;8.674;2023-03-20T02:58:25;100723.88;;;12.93
18713;BMP280;9485;49.386;8.674;2023-03-20T03:03:53;100721.84;;;12.93
18713;BMP280;9485;49.386;8.674;2023-03-20T03:09:20;100709.34;;;12.80
18713;BMP280;9485;49.386;8.674;2023-03-20T03:14:47;100729.28;;;12.91
18713;BMP280;9485;49.386;8.674;2023-03-20T03:20:20;100730.06;;;12.91
18713;BMP280;9485;49.386;8.674;2023-03-20T03:25:42;100726.72;;;12.93
18713;BMP280;9485;49.386;8.674;2023-03-20T03:31:08;100709.56;;;12.76
18713;BMP280;9485;49.386;8.674;2023-03-20T03:36:40;100733.13;;;12.88
18713;BMP280;9485;49.386;8.674;2023-03-20T03:42:08;100732.38;;;12.87
18713;BMP280;9485;49.386;8.674;2023-03-20T03:47:38;100728.47;;;12.85
18713;BMP280;9485;49.386;8.674;2023-03-20T03:53:03;100718.41;;;12.84
18713;BMP280;9485;49.386;8.674;2023-03-20T03:58:30;100719.91;;;12.79
18713;BMP280;9485;49.386;8.674;2023-03-20T04:03:57;100721.69;;;12.77
18713;BMP280;9485;49.386;8.674;2023-03-20T04:09:20;100724.31;;;12.80
18713;BMP280;9485;49.386;8.674;2023-03-20T04:14:41;100738.47;;;12.80
18713;BMP280;9485;49.386;8.674;2023-03-20T04:20:05;100748.00;;;12.83
18713;BMP280;9485;49.386;8.674;2023-03-20T04:25:26;100756.00;;;12.84
18713;BMP280;9485;49.386;8.674;2023-03-20T04:30:51;100759.63;;;12.85
18713;BMP280;9485;49.386;8.674;2023-03-20T04:36:33;100759.63;;;12.85
18713;BMP280;9485;49.386;8.674;2023-03-20T04:41:56;100769.91;;;12.82
18713;BMP280;9485;49.386;8.674;2023-03-20T04:47:16;100776.06;;;12.81
18713;BMP280;9485;49.386;8.674;2023-03-20T04:52:38;100749.00;;;12.80
18713;BMP280;9485;49.386;8.674;2023-03-20T04:58:00;100753.91;;;12.79
18713;BMP280;9485;49.386;8.674;2023-03-20T05:03:21;100751.06;;;12.79
18713;BMP280;9485;49.386;8.674;2023-03-20T05:08:44;100766.28;;;12.82
18713;BMP280;9485;49.386;8.674;2023-03-20T05:14:05;100766.06;;;12.85
18713;BMP280;9485;49.386;8.674;2023-03-20T05:19:29;100770.47;;;12.86
18713;BMP280;9485;49.386;8.674;2023-03-20T05:25:13;100765.31;;;12.85
18713;BMP280;9485;49.386;8.674;2023-03-20T05:30:48;100766.00;;;12.80
18713;BMP280;9485;49.386;8.674;2023-03-20T05:36:34;100775.78;;;12.79
18713;BMP280;9485;49.386;8.674;2023-03-20T05:42:14;100783.03;;;12.80
18713;BMP280;9485;49.386;8.674;2023-03-20T05:47:57;100787.97;;;12.85
18713;BMP280;9485;49.386;8.674;2023-03-20T05:53:39;100776.63;;;12.85
18713;BMP280;9485;49.386;8.674;2023-03-20T05:59:21;100771.44;;;12.83
18713;BMP280;9485;49.386;8.674;2023-03-20T06:05:09;100772.81;;;12.88
18713;BMP280;9485;49.386;8.674;2023-03-20T06:10:38;100757.88;;;12.93
18713;BMP280;9485;49.386;8.674;2023-03-20T06:16:04;100750.34;;;12.84
18713;BMP280;9485;49.386;8.674;2023-03-20T06:21:25;100776.50;;;12.99
18713;BMP280;9485;49.386;8.674;2023-03-20T06:26:47;100784.44;;;12.90
18713;BMP280;9485;49.386;8.674;2023-03-20T06:32:09;100814.22;;;13.11
18713;BMP280;9485;49.386;8.674;2023-03-20T06:37:32;100802.88;;;13.11
18713;BMP280;9485;49.386;8.674;2023-03-20T06:42:59;100803.13;;;13.07
18713;BMP280;9485;49.386;8.674;2023-03-20T06:48:35;100820.91;;;13.08
18713;BMP280;9485;49.386;8.674;2023-03-20T06:53:59;100824.53;;;13.14
18713;BMP280;9485;49.386;8.674;2023-03-20T06:59:20;100827.66;;;13.16
18713;BMP280;9485;49.386;8.674;2023-03-20T07:04:48;100833.63;;;13.18
18713;BMP280;9485;49.386;8.674;2023-03-20T07:10:11;100839.34;;;13.23
18713;BMP280;9485;49.386;8.674;2023-03-20T07:15:35;100839.09;;;13.27
18713;BMP280;9485;49.386;8.674;2023-03-20T07:21:01;100836.50;;;13.29
18713;BMP280;9485;49.386;8.674;2023-03-20T07:26:23;100838.81;;;13.25
18713;BMP280;9485;49.386;8.674;2023-03-20T07:31:46;100839.09;;;13.27
18713;BMP280;9485;49.386;8.674;2023-03-20T07:37:16;100833.44;;;13.27
18713;BMP280;9485;49.386;8.674;2023-03-20T07:42:49;100832.63;;;13.26
18713;BMP280;9485;49.386;8.674;2023-03-20T07:48:29;100833.97;;;13.31
18713;BMP280;9485;49.386;8.674;2023-03-20T07:53:52;100839.69;;;13.42
18713;BMP280;9485;49.386;8.674;2023-03-20T07:59:16;100832.03;;;13.48
18713;BMP280;9485;49.386;8.674;2023-03-20T08:04:37;100836.16;;;13.52
18713;BMP280;9485;49.386;8.674;2023-03-20T08:10:02;100846.22;;;13.53
18713;BMP280;9485;49.386;8.674;2023-03-20T08:15:23;100844.47;;;13.61
18713;BMP280;9485;49.386;8.674;2023-03-20T08:20:44;100850.72;;;13.70
18713;BMP280;9485;49.386;8.674;2023-03-20T08:26:07;100850.00;;;13.81
18713;BMP280;9485;49.386;8.674;2023-03-20T08:31:28;100861.09;;;13.84
18713;BMP280;9485;49.386;8.674;2023-03-20T08:36:50;100865.22;;;13.83
18713;BMP280;9485;49.386;8.674;2023-03-20T08:42:13;100862.66;;;13.85
18713;BMP280;9485;49.386;8.674;2023-03-20T08:47:35;100866.53;;;13.88
18713;BMP280;9485;49.386;8.674;2023-03-20T08:52:56;100869.38;;;13.88
18713;BMP280;9485;49.386;8.674;2023-03-20T08:58:19;100875.84;;;13.94
18713;BMP280;9485;49.386;8.674;2023-03-20T09:03:40;100874.34;;;13.93
18713;BMP280;9485;49.386;8.674;2023-03-20T09:09:02;100886.50;;;14.04
18713;BMP280;9485;49.386;8.674;2023-03-20T09:14:26;100897.97;;;14.15
18713;BMP280;9485;49.386;8.674;2023-03-20T09:19:47;100901.31;;;14.19
18713;BMP280;9485;49.386;8.674;2023-03-20T09:25:10;100897.75;;;14.24
18713;BMP280;9485;49.386;8.674;2023-03-20T09:30:32;100900.06;;;14.26
18713;BMP280;9485;49.386;8.674;2023-03-20T09:35:54;100911.94;;;14.24
18713;BMP280;9485;49.386;8.674;2023-03-20T09:41:19;100904.72;;;14.23
18713;BMP280;9485;49.386;8.674;2023-03-20T09:47:06;100918.16;;;14.28
18713;BMP280;9485;49.386;8.674;2023-03-20T09:52:32;100923.88;;;14.33
18713;BMP280;9485;49.386;8.674;2023-03-20T09:58:02;100916.16;;;14.45
18713;BMP280;9485;49.386;8.674;2023-03-20T10:03:31;100905.09;;;14.63
18713;BMP280;9485;49.386;8.674;2023-03-20T10:08:56;100912.13;;;14.79
18713;BMP280;9485;49.386;8.674;2023-03-20T10:14:26;100921.22;;;15.10
18713;BMP280;9485;49.386;8.674;2023-03-20T10:19:57;100887.34;;;15.17
18713;BMP280;9485;49.386;8.674;2023-03-20T10:25:27;100916.34;;;15.43
18713;BMP280;9485;49.386;8.674;2023-03-20T10:31:08;100915.31;;;15.57
18713;BMP280;9485;49.386;8.674;2023-03-20T10:36:48;100908.56;;;15.66
18713;BMP280;9485;49.386;8.674;2023-03-20T10:42:18;100894.06;;;15.64
18713;BMP280;9485;49.386;8.674;2023-03-20T10:47:46;100898.16;;;15.84
18713;BMP280;9485;49.386;8.674;2023-03-20T10:53:24;100903.00;;;16.17
18713;BMP280;9485;49.386;8.674;2023-03-20T10:58:57;100889.72;;;16.41
18713;BMP280;9485;49.386;8.674;2023-03-20T11:04:19;100888.31;;;16.58
18713;BMP280;9485;49.386;8.674;2023-03-20T11:09:43;100892.09;;;16.77
18713;BMP280;9485;49.386;8.674;2023-03-20T11:15:20;100893.97;;;17.04
18713;BMP280;9485;49.386;8.674;2023-03-20T11:20:48;100901.38;;;17.24
18713;BMP280;9485;49.386;8.674;2023-03-20T11:26:15;100899.19;;;17.40
18713;BMP280;9485;49.386;8.674;2023-03-20T11:31:39;100886.44;;;17.71
18713;BMP280;9485;49.386;8.674;2023-03-20T11:37:22;100876.63;;;17.90
18713;BMP280;9485;49.386;8.674;2023-03-20T11:42:55;100875.59;;;17.88
18713;BMP280;9485;49.386;8.674;2023-03-20T11:48:19;100872.28;;;17.84
18713;BMP280;9485;49.386;8.674;2023-03-20T11:53:55;100863.75;;;18.02
18713;BMP280;9485;49.386;8.674;2023-03-20T11:59:18;100854.63;;;18.27
18713;BMP280;9485;49.386;8.674;2023-03-20T12:04:39;100854.59;;;18.83
18713;BMP280;9485;49.386;8.674;2023-03-20T12:10:06;100846.47;;;19.05
18713;BMP280;9485;49.386;8.674;2023-03-20T12:15:32;100838.72;;;19.00
18713;BMP280;9485;49.386;8.674;2023-03-20T12:21:03;100833.69;;;19.06
18713;BMP280;9485;49.386;8.674;2023-03-20T12:26:32;100843.06;;;19.38
18713;BMP280;9485;49.386;8.674;2023-03-20T12:32:01;100814.69;;;19.65
18713;BMP280;9485;49.386;8.674;2023-03-20T12:37:22;100822.16;;;19.43
18713;BMP280;9485;49.386;8.674;2023-03-20T12:43:02;100817.22;;;19.56
18713;BMP280;9485;49.386;8.674;2023-03-20T12:48:47;100813.13;;;19.64
18713;BMP280;9485;49.386;8.674;2023-03-20T12:54:31;100803.00;;;19.76
18713;BMP280;9485;49.386;8.674;2023-03-20T13:00:17;100798.47;;;19.55
18713;BMP280;9485;49.386;8.674;2023-03-20T13:05:48;100791.28;;;19.36
18713;BMP280;9485;49.386;8.674;2023-03-20T13:11:23;100785.66;;;19.30
18713;BMP280;9485;49.386;8.674;2023-03-20T13:16:55;100783.66;;;19.25
18713;BMP280;9485;49.386;8.674;2023-03-20T13:22:28;100770.56;;;19.17
18713;BMP280;9485;49.386;8.674;2023-03-20T13:28:02;100774.19;;;19.30
18713;BMP280;9485;49.386;8.674;2023-03-20T13:33:42;100764.97;;;19.37
18713;BMP280;9485;49.386;8.674;2023-03-20T13:39:19;100756.81;;;19.80
18713;BMP280;9485;49.386;8.674;2023-03-20T13:44:42;100767.03;;;20.27
18713;BMP280;9485;49.386;8.674;2023-03-20T13:50:25;100750.75;;;20.09
18713;BMP280;9485;49.386;8.674;2023-03-20T13:55:57;100748.25;;;20.06
18713;BMP280;9485;49.386;8.674;2023-03-20T14:01:28;100740.50;;;20.01
18713;BMP280;9485;49.386;8.674;2023-03-20T14:06:53;100736.66;;;19.85
18713;BMP280;9485;49.386;8.674;2023-03-20T14:12:17;100729.19;;;19.57
18713;BMP280;9485;49.386;8.674;2023-03-20T14:17:43;100732.81;;;19.31
18713;BMP280;9485;49.386;8.674;2023-03-20T14:23:16;100730.25;;;19.15
18713;BMP280;9485;49.386;8.674;2023-03-20T14:29:00;100741.25;;;19.11
18713;BMP280;9485;49.386;8.674;2023-03-20T14:34:22;100727.34;;;19.02
18713;BMP280;9485;49.386;8.674;2023-03-20T14:39:51;100733.06;;;19.02
18713;BMP280;9485;49.386;8.674;2023-03-20T14:45:39;100726.25;;;19.05
18713;BMP280;9485;49.386;8.674;2023-03-20T14:51:16;100726.78;;;19.03
18713;BMP280;9485;49.386;8.674;2023-03-20T14:56:38;100732.19;;;19.07
18713;BMP280;9485;49.386;8.674;2023-03-20T15:02:02;100725.94;;;19.08
18713;BMP280;9485;49.386;8.674;2023-03-20T15:07:27;100733.28;;;19.04
18713;BMP280;9485;49.386;8.674;2023-03-20T15:12:51;100731.97;;;19.05
18713;BMP280;9485;49.386;8.674;2023-03-20T15:18:15;100728.56;;;19.06
18713;BMP280;9485;49.386;8.674;2023-03-20T15:23:39;100733.06;;;19.02
18713;BMP280;9485;49.386;8.674;2023-03-20T15:29:03;100727.66;;;18.98
18713;BMP280;9485;49.386;8.674;2023-03-20T15:34:30;100717.50;;;18.84
18713;BMP280;9485;49.386;8.674;2023-03-20T15:39:54;100731.88;;;18.66
18713;BMP280;9485;49.386;8.674;2023-03-20T15:45:25;100722.31;;;18.45
18713;BMP280;9485;49.386;8.674;2023-03-20T15:50:53;100734.69;;;18.35
18713;BMP280;9485;49.386;8.674;2023-03-20T15:56:17;100713.28;;;18.05
18713;BMP280;9485;49.386;8.674;2023-03-20T16:01:40;100720.00;;;18.07
18713;BMP280;9485;49.386;8.674;2023-03-20T16:07:02;100715.47;;;17.99
18713;BMP280;9485;49.386;8.674;2023-03-20T16:12:24;100714.53;;;17.91
18713;BMP280;9485;49.386;8.674;2023-03-20T16:17:48;100716.16;;;17.86
18713;BMP280;9485;49.386;8.674;2023-03-20T16:23:29;100718.56;;;17.82
18713;BMP280;9485;49.386;8.674;2023-03-20T16:28:56;100722.84;;;17.70
18713;BMP280;9485;49.386;8.674;2023-03-20T16:34:21;100727.00;;;17.51
18713;BMP280;9485;49.386;8.674;2023-03-20T16:39:44;100728.19;;;17.37
18713;BMP280;9485;49.386;8.674;2023-03-20T16:45:15;100712.13;;;17.10
18713;BMP280;9485;49.386;8.674;2023-03-20T16:50:39;100732.84;;;17.11
18713;BMP280;9485;49.386;8.674;2023-03-20T16:56:04;100732.47;;;16.96
18713;BMP280;9485;49.386;8.674;2023-03-20T17:01:30;100730.31;;;16.78
18713;BMP280;9485;49.386;8.674;2023-03-20T17:06:57;100739.00;;;16.61
18713;BMP280;9485;49.386;8.674;2023-03-20T17:12:24;100735.75;;;16.47
18713;BMP280;9485;49.386;8.674;2023-03-20T17:17:46;100753.47;;;16.34
18713;BMP280;9485;49.386;8.674;2023-03-20T17:23:14;100745.25;;;16.20
18713;BMP280;9485;49.386;8.674;2023-03-20T17:28:38;100749.16;;;16.11
18713;BMP280;9485;49.386;8.674;2023-03-20T17:34:02;100757.00;;;16.00
18713;BMP280;9485;49.386;8.674;2023-03-20T17:39:23;100755.78;;;15.84
18713;BMP280;9485;49.386;8.674;2023-03-20T17:44:45;100756.34;;;15.72
18713;BMP280;9485;49.386;8.674;2023-03-20T17:50:11;100756.41;;;15.56
18713;BMP280;9485;49.386;8.674;2023-03-20T17:55:35;100761.88;;;15.48
18713;BMP280;9485;49.386;8.674;2023-03-20T18:00:57;100769.13;;;15.38
18713;BMP280;9485;49.386;8.674;2023-03-20T18:06:23;100775.13;;;15.29
18713;BMP280;9485;49.386;8.674;2023-03-20T18:11:45;100766.03;;;15.20
18713;BMP280;9485;49.386;8.674;2023-03-20T18:17:09;100775.63;;;15.11
18713;BMP280;9485;49.386;8.674;2023-03-20T18:22:30;100772.78;;;15.06
18713;BMP280;9485;49.386;8.674;2023-03-20T18:27:53;100761.69;;;14.97
18713;BMP280;9485;49.386;8.674;2023-03-20T18:33:15;100764.28;;;14.95
18713;BMP280;9485;49.386;8.674;2023-03-20T18:38:36;100768.66;;;14.91
18713;BMP280;9485;49.386;8.674;2023-03-20T18:43:56;100762.72;;;14.89
18713;BMP280;9485;49.386;8.674;2023-03-20T18:49:18;100764.53;;;14.86
18713;BMP280;9485;49.386;8.674;2023-03-20T18:54:40;100757.56;;;14.82
18713;BMP280;9485;49.386;8.674;2023-03-20T19:00:00;100766.88;;;14.77
18713;BMP280;9485;49.386;8.674;2023-03-20T19:05:25;100741.53;;;14.51
18713;BMP280;9485;49.386;8.674;2023-03-20T19:10:47;100772.28;;;14.58
18713;BMP280;9485;49.386;8.674;2023-03-20T19:16:22;100772.53;;;14.55
18713;BMP280;9485;49.386;8.674;2023-03-20T19:21:44;100768.41;;;14.50
18713;BMP280;9485;49.386;8.674;2023-03-20T19:27:05;100770.72;;;14.46
18713;BMP280;9485;49.386;8.674;2023-03-20T19:32:25;100767.34;;;14.42
18713;BMP280;9485;49.386;8.674;2023-03-20T19:37:47;100759.59;;;14.37
18713;BMP280;9485;49.386;8.674;2023-03-20T19:43:09;100765.81;;;14.36
18713;BMP280;9485;49.386;8.674;2023-03-20T19:48:30;100761.66;;;14.31
18713;BMP280;9485;49.386;8.674;2023-03-20T19:53:53;100754.69;;;14.27
18713;BMP280;9485;49.386;8.674;2023-03-20T19:59:14;100754.69;;;14.27
18713;BMP280;9485;49.386;8.674;2023-03-20T20:04:34;100762.44;;;14.27
18713;BMP280;9485;49.386;8.674;2023-03-20T20:09:56;100757.25;;;14.25
18713;BMP280;9485;49.386;8.674;2023-03-20T20:15:18;100747.19;;;14.24
18713;BMP280;9485;49.386;8.674;2023-03-20T20:20:40;100745.66;;;14.23
18713;BMP280;9485;49.386;8.674;2023-03-20T20:26:02;100748.75;;;14.20
18713;BMP280;9485;49.386;8.674;2023-03-20T20:31:27;100751.56;;;14.20
18713;BMP280;9485;49.386;8.674;2023-03-20T20:36:48;100742.03;;;14.17
18713;BMP280;9485;49.386;8.674;2023-03-20T20:42:10;100744.31;;;14.13
18713;BMP280;9485;49.386;8.674;2023-03-20T20:47:30;100730.34;;;14.10
18713;BMP280;9485;49.386;8.674;2023-03-20T20:52:52;100740.16;;;14.03
18713;BMP280;9485;49.386;8.674;2023-03-20T20:58:14;100734.44;;;13.98
18713;BMP280;9485;49.386;8.674;2023-03-20T21:03:35;100736.50;;;13.92
18713;BMP280;9485;49.386;8.674;2023-03-20T21:08:56;100745.25;;;13.88
18713;BMP280;9485;49.386;8.674;2023-03-20T21:14:17;100737.47;;;13.83
18713;BMP280;9485;49.386;8.674;2023-03-20T21:19:40;100742.13;;;13.81
18713;BMP280;9485;49.386;8.674;2023-03-20T21:25:02;100743.69;;;13.82
18713;BMP280;9485;49.386;8.674;2023-03-20T21:30:24;100731.56;;;13.81
18713;BMP280;9485;49.386;8.674;2023-03-20T21:35:46;100742.91;;;13.81
18713;BMP280;9485;49.386;8.674;2023-03-20T21:41:08;100742.91;;;13.81
18713;BMP280;9485;49.386;8.674;2023-03-20T21:46:30;100747.31;;;13.82
18713;BMP280;9485;49.386;8.674;2023-03-20T21:51:51;100739.56;;;13.83
18713;BMP280;9485;49.386;8.674;2023-03-20T21:57:15;100739.56;;;13.83
18713;BMP280;9485;49.386;8.674;2023-03-20T22:02:38;100740.09;;;13.81
18713;BMP280;9485;49.386;8.674;2023-03-20T22:07:58;100751.44;;;13.81
18713;BMP280;9485;49.386;8.674;2023-03-20T22:13:19;100741.38;;;13.80
18713;BMP280;9485;49.386;8.674;2023-03-20T22:18:41;100746.25;;;13.80
18713;BMP280;9485;49.386;8.674;2023-03-20T22:24:02;100739.28;;;13.81
18713;BMP280;9485;49.386;8.674;2023-03-20T22:29:23;100742.13;;;13.81
18713;BMP280;9485;49.386;8.674;2023-03-20T22:34:44;100742.91;;;13.81
18713;BMP280;9485;49.386;8.674;2023-03-20T22:40:07;100742.91;;;13.81
18713;BMP280;9485;49.386;8.674;2023-03-20T22:45:27;100741.09;;;13.78
18713;BMP280;9485;49.386;8.674;2023-03-20T22:50:50;100731.28;;;13.79
18713;BMP280;9485;49.386;8.674;2023-03-20T22:56:11;100727.69;;;13.79
18713;BMP280;9485;49.386;8.674;2023-03-20T23:01:31;100729.47;;;13.76
18713;BMP280;9485;49.386;8.674;2023-03-20T23:06:53;100723.53;;;13.74
18713;BMP280;9485;49.386;8.674;2023-03-20T23:12:15;100720.16;;;13.70
18713;BMP280;9485;49.386;8.674;2023-03-20T23:17:36;100719.41;;;13.70
18713;BMP280;9485;49.386;8.674;2023-03-20T23:22:58;100724.03;;;13.67
18713;BMP280;9485;49.386;8.674;2023-03-20T23:28:19;100716.78;;;13.61
18713;BMP280;9485;49.386;8.674;2023-03-20T23:33:40;100720.34;;;13.50
18713;BMP280;9485;49.386;8.674;2023-03-20T23:39:02;100715.38;;;13.35
18713;BMP280;9485;49.386;8.674;2023-03-20T23:44:23;100719.16;;;13.21
18713;BMP280;9485;49.386;8.674;2023-03-20T23:49:44;100703.09;;;13.07
18713;BMP280;9485;49.386;8.674;2023-03-20T23:55:08;100702.03;;;12.99
